Terminal Aerodrome Forecast
Issued by NWS

Home | Current Version | Previous Version | Text Only | Print | Product List | Glossary On
Versions: 1 2 3 4 5 6 7 8 9 10 11 12 13
000
FTAK31 PAJN 291100
TAFAPG
TAF
PAPG 291127Z 2912/3012 VRB03KT P6SM VCSH SCT025 OVC035
      TEMPO 2912/2916 5SM -RA BR OVC020
     FM300300 VRB03KT 6SM BCFG SCT003 SCT040
      AMD LTD TO CLD VIS AND WIND 2912/2915=

USA.gov is the U.S. government's official web portal to all federal, state and local government web resources and services.